VRMMOTBD

Guest
Details From VRMM - Male Intl
To OTBD - Doha Intl
Flight Number -
Tags Generated
Created
Modified
Stats Distance 1,791 nm / 3,316 km
Max Altitude 0 ft / 0 m
Waypoints 3
Social Downloads 2
Likes 0
Share VATSIM

Download

Looking for another format? Having issues loading an existing format? Contact us
Advertisement - Login to hide

Notes

Generated

Route

VRMM DOH30 OTBD

ID Type Via Altitude Latitude Longitude Leg Dist Tot Dist Heading (true) Name
O VRMM APT - 0 ft / 0 m 4.20629˚ 73.52889˚ - 0 nm - -
DOH30 FIX - 0 ft / 0 m 25.28013˚ 51.55651˚ 1790 nm 1790 nm 317° / 311° -
O OTBD APT - 0 ft / 0 m 25.28022˚ 51.55653˚ 0 nm 1790 nm 10° / 10° -

Altitude Profile

Advertisement - Login to hide

Weather


0- 5 10 15 20 25 30 35+ Temperature / ° C

Clouds and Precipitation
Forecast for 2017-12-18 12:00 UTC. Updated 15 minutes ago

Ground ~20,000 ft ~40,000 ft Winds

VRMM

Details ICAO VRMM (MLE)
Name MALE INTL
Region Maldives
Timezone Indian/Maldives (UTC+5.0)
Stats Elevation 6 ft / 2 m (AMSL)
Location 4.191832° 73.529128°
Runways 1
Magnetic Variation 2.833° W

METAR

VRMM 180800Z 13006KT 7000 -SHRA SCT017 FEW018CB BKN100 28/25 Q1013 CB N SW NW TEMPO 5000 -SHRA

Decode

TAF

TAF VRMM 180500Z 1806/1912 09015KT 9000 FEW018TCU BKN120 TEMPO 1909/1818 09020G33KT 4000 TSRA SCT017CB

Decode

Departure Runways

ID Width Length Bearing (true) Bearing (mag) Surface Threshold Offset Overrun Length
18 148 ft / 45 m 10,556 ft / 3,218 m 179.06° 181.89° Asphalt 328 ft / 100 m 201 ft / 61 m
36 148 ft / 45 m 10,556 ft / 3,218 m 359.06° 1.89° Asphalt 952 ft / 290 m 238 ft / 73 m

OTBD

Details ICAO OTBD (DOH)
Name DOHA INTL
Region Qatar
Timezone Asia/Qatar (UTC+3.0)
Stats Elevation 35 ft / 11 m (AMSL)
Location 25.261056° 51.564999°
Runways 1
Magnetic Variation 2.482° E

METAR

OTBD 180900Z 35011KT 9999 FEW030 24/14 Q1021 NOSIG

Decode

TAF

TAF OTBD 180509Z 1806/1912 32008KT 9999 FEW030 BECMG 1808/1810 03007KT BECMG 1817/1819 33008KT

Decode

Destination Runways

ID Width Length Bearing (true) Bearing (mag) Surface Threshold Offset Overrun Length
16 151 ft / 46 m 15,065 ft / 4,592 m 158.20° 155.72° Asphalt 2,460 ft / 750 m 98 ft / 30 m
34 151 ft / 46 m 15,065 ft / 4,592 m 338.21° 335.73° Asphalt 0 ft / 0 m 460 ft / 140 m

Approach Navaids

Runway Type Ident Frequency Range Bearing (true) Bearing (mag) Slope Elevation
34 Localiser IBD 109.50 MHz 18 nm / 33 km 338.32° 335.84° - 38 ft / 12 m (AMSL)
34 Glidescope IBD 109.50 MHz 10 nm / 19 km 338.21° 335.73° 3.00° 35 ft / 11 m (AMSL)
34 DME IBD 109.50 MHz 18 nm / 33 km - - - 35 ft / 11 m (AMSL)

Popular Alternatives